sensor_id;sensor_type;location;lat;lon;timestamp;temperature;humidity
35746;DHT22;21870;42.812;74.628;2022-08-19T00:01:43;18.70;91.00
35746;DHT22;21870;42.812;74.628;2022-08-19T00:04:13;18.70;91.60
35746;DHT22;21870;42.812;74.628;2022-08-19T00:06:41;18.60;92.30
35746;DHT22;21870;42.812;74.628;2022-08-19T00:09:10;18.60;91.80
35746;DHT22;21870;42.812;74.628;2022-08-19T00:11:36;18.50;90.90
35746;DHT22;21870;42.812;74.628;2022-08-19T00:14:05;18.40;91.00
35746;DHT22;21870;42.812;74.628;2022-08-19T00:16:32;18.30;90.10
35746;DHT22;21870;42.812;74.628;2022-08-19T00:18:58;18.10;90.50
35746;DHT22;21870;42.812;74.628;2022-08-19T00:21:25;18.10;90.30
35746;DHT22;21870;42.812;74.628;2022-08-19T00:23:53;18.00;90.40
35746;DHT22;21870;42.812;74.628;2022-08-19T00:26:19;17.90;90.20
35746;DHT22;21870;42.812;74.628;2022-08-19T00:28:46;18.00;90.40
35746;DHT22;21870;42.812;74.628;2022-08-19T00:31:13;17.90;90.20
35746;DHT22;21870;42.812;74.628;2022-08-19T00:33:39;18.00;90.00
35746;DHT22;21870;42.812;74.628;2022-08-19T00:36:07;17.80;90.00
35746;DHT22;21870;42.812;74.628;2022-08-19T00:38:35;17.90;90.00
35746;DHT22;21870;42.812;74.628;2022-08-19T00:41:02;18.00;90.00
35746;DHT22;21870;42.812;74.628;2022-08-19T00:43:28;18.00;89.60
35746;DHT22;21870;42.812;74.628;2022-08-19T00:45:54;18.20;89.00
35746;DHT22;21870;42.812;74.628;2022-08-19T00:48:21;18.30;88.80
35746;DHT22;21870;42.812;74.628;2022-08-19T00:50:50;18.30;90.00
35746;DHT22;21870;42.812;74.628;2022-08-19T00:53:21;18.30;90.00
35746;DHT22;21870;42.812;74.628;2022-08-19T00:55:51;18.30;89.60
35746;DHT22;21870;42.812;74.628;2022-08-19T00:58:21;18.40;89.60
35746;DHT22;21870;42.812;74.628;2022-08-19T01:00:48;18.40;89.30
35746;DHT22;21870;42.812;74.628;2022-08-19T01:03:17;18.50;89.10
35746;DHT22;21870;42.812;74.628;2022-08-19T01:05:45;18.60;89.20
35746;DHT22;21870;42.812;74.628;2022-08-19T01:08:13;18.60;89.40
35746;DHT22;21870;42.812;74.628;2022-08-19T01:10:44;18.70;89.80
35746;DHT22;21870;42.812;74.628;2022-08-19T01:13:12;18.80;90.00
35746;DHT22;21870;42.812;74.628;2022-08-19T01:15:48;18.90;90.90
35746;DHT22;21870;42.812;74.628;2022-08-19T01:18:16;19.00;91.20
35746;DHT22;21870;42.812;74.628;2022-08-19T01:20:44;19.10;91.50
35746;DHT22;21870;42.812;74.628;2022-08-19T01:23:10;19.20;93.40
35746;DHT22;21870;42.812;74.628;2022-08-19T01:26:03;19.30;92.10
35746;DHT22;21870;42.812;74.628;2022-08-19T01:28:30;19.50;92.10
35746;DHT22;21870;42.812;74.628;2022-08-19T01:30:56;19.60;91.40
35746;DHT22;21870;42.812;74.628;2022-08-19T01:33:22;19.70;89.70
35746;DHT22;21870;42.812;74.628;2022-08-19T01:35:48;19.90;88.90
35746;DHT22;21870;42.812;74.628;2022-08-19T01:38:26;20.10;92.70
35746;DHT22;21870;42.812;74.628;2022-08-19T01:40:53;20.20;91.30
35746;DHT22;21870;42.812;74.628;2022-08-19T01:43:19;20.40;90.90
35746;DHT22;21870;42.812;74.628;2022-08-19T01:45:46;20.50;91.00
35746;DHT22;21870;42.812;74.628;2022-08-19T01:48:13;20.60;90.40
35746;DHT22;21870;42.812;74.628;2022-08-19T01:50:39;20.60;90.60
35746;DHT22;21870;42.812;74.628;2022-08-19T01:53:09;20.60;91.10
35746;DHT22;21870;42.812;74.628;2022-08-19T01:55:38;20.70;91.40
35746;DHT22;21870;42.812;74.628;2022-08-19T01:58:06;20.80;91.10
35746;DHT22;21870;42.812;74.628;2022-08-19T02:00:33;20.90;90.50
35746;DHT22;21870;42.812;74.628;2022-08-19T02:02:59;21.00;90.90
35746;DHT22;21870;42.812;74.628;2022-08-19T02:05:27;21.10;90.20
35746;DHT22;21870;42.812;74.628;2022-08-19T02:07:56;21.30;90.90
35746;DHT22;21870;42.812;74.628;2022-08-19T02:10:22;21.40;90.30
35746;DHT22;21870;42.812;74.628;2022-08-19T02:12:49;21.40;89.70
35746;DHT22;21870;42.812;74.628;2022-08-19T02:15:16;21.50;90.00
35746;DHT22;21870;42.812;74.628;2022-08-19T02:17:43;21.50;89.70
35746;DHT22;21870;42.812;74.628;2022-08-19T02:20:10;21.70;89.70
35746;DHT22;21870;42.812;74.628;2022-08-19T02:22:36;21.80;88.50
35746;DHT22;21870;42.812;74.628;2022-08-19T02:25:03;21.90;87.80
35746;DHT22;21870;42.812;74.628;2022-08-19T02:27:30;22.00;87.70
35746;DHT22;21870;42.812;74.628;2022-08-19T02:29:56;22.10;88.10
35746;DHT22;21870;42.812;74.628;2022-08-19T02:32:22;22.20;87.90
35746;DHT22;21870;42.812;74.628;2022-08-19T02:34:48;22.30;87.60
35746;DHT22;21870;42.812;74.628;2022-08-19T02:37:15;22.40;87.50
35746;DHT22;21870;42.812;74.628;2022-08-19T02:39:59;22.60;88.60
35746;DHT22;21870;42.812;74.628;2022-08-19T02:42:25;22.80;86.60
35746;DHT22;21870;42.812;74.628;2022-08-19T02:44:51;22.80;88.10
35746;DHT22;21870;42.812;74.628;2022-08-19T02:47:18;23.00;87.00
35746;DHT22;21870;42.812;74.628;2022-08-19T02:49:47;23.00;88.70
35746;DHT22;21870;42.812;74.628;2022-08-19T02:52:16;23.10;87.90
35746;DHT22;21870;42.812;74.628;2022-08-19T02:54:42;23.20;86.10
35746;DHT22;21870;42.812;74.628;2022-08-19T02:57:09;23.20;85.40
35746;DHT22;21870;42.812;74.628;2022-08-19T02:59:35;23.20;82.50
35746;DHT22;21870;42.812;74.628;2022-08-19T03:02:01;23.10;83.80
35746;DHT22;21870;42.812;74.628;2022-08-19T03:04:28;23.20;85.60
35746;DHT22;21870;42.812;74.628;2022-08-19T03:06:55;23.20;85.10
35746;DHT22;21870;42.812;74.628;2022-08-19T03:09:21;23.40;83.00
35746;DHT22;21870;42.812;74.628;2022-08-19T03:11:47;23.50;82.00
35746;DHT22;21870;42.812;74.628;2022-08-19T03:14:13;23.80;83.40
35746;DHT22;21870;42.812;74.628;2022-08-19T03:16:52;24.00;83.00
35746;DHT22;21870;42.812;74.628;2022-08-19T03:19:19;24.10;83.50
35746;DHT22;21870;42.812;74.628;2022-08-19T03:21:47;24.10;82.00
35746;DHT22;21870;42.812;74.628;2022-08-19T03:24:14;24.10;79.00
35746;DHT22;21870;42.812;74.628;2022-08-19T03:27:06;24.30;79.00
35746;DHT22;21870;42.812;74.628;2022-08-19T03:29:32;24.40;79.00
35746;DHT22;21870;42.812;74.628;2022-08-19T03:32:04;24.40;79.00
35746;DHT22;21870;42.812;74.628;2022-08-19T03:34:32;24.70;84.00
35746;DHT22;21870;42.812;74.628;2022-08-19T03:37:07;24.80;82.70
35746;DHT22;21870;42.812;74.628;2022-08-19T03:39:35;24.90;83.30
35746;DHT22;21870;42.812;74.628;2022-08-19T03:42:01;25.00;81.80
35746;DHT22;21870;42.812;74.628;2022-08-19T03:44:28;25.10;81.70
35746;DHT22;21870;42.812;74.628;2022-08-19T03:46:56;25.10;81.50
35746;DHT22;21870;42.812;74.628;2022-08-19T03:49:25;25.20;80.10
35746;DHT22;21870;42.812;74.628;2022-08-19T03:51:53;25.40;77.90
35746;DHT22;21870;42.812;74.628;2022-08-19T03:54:24;25.50;78.30
35746;DHT22;21870;42.812;74.628;2022-08-19T03:56:53;25.60;77.30
35746;DHT22;21870;42.812;74.628;2022-08-19T03:59:26;25.60;76.90
35746;DHT22;21870;42.812;74.628;2022-08-19T04:01:55;25.80;78.50
35746;DHT22;21870;42.812;74.628;2022-08-19T04:04:22;26.00;78.10
35746;DHT22;21870;42.812;74.628;2022-08-19T04:06:48;26.00;76.30
35746;DHT22;21870;42.812;74.628;2022-08-19T04:09:17;26.10;75.40
35746;DHT22;21870;42.812;74.628;2022-08-19T04:11:48;26.10;76.30
35746;DHT22;21870;42.812;74.628;2022-08-19T04:14:18;26.30;77.50
35746;DHT22;21870;42.812;74.628;2022-08-19T04:16:46;26.40;77.00
35746;DHT22;21870;42.812;74.628;2022-08-19T04:19:14;26.40;76.80
35746;DHT22;21870;42.812;74.628;2022-08-19T04:21:42;26.50;75.70
35746;DHT22;21870;42.812;74.628;2022-08-19T04:24:12;26.50;77.50
35746;DHT22;21870;42.812;74.628;2022-08-19T04:26:39;26.70;76.60
35746;DHT22;21870;42.812;74.628;2022-08-19T04:29:11;26.90;76.70
35746;DHT22;21870;42.812;74.628;2022-08-19T04:31:38;27.10;76.00
35746;DHT22;21870;42.812;74.628;2022-08-19T04:34:07;27.10;74.60
35746;DHT22;21870;42.812;74.628;2022-08-19T04:36:37;27.30;74.50
35746;DHT22;21870;42.812;74.628;2022-08-19T04:39:10;27.40;75.70
35746;DHT22;21870;42.812;74.628;2022-08-19T04:41:37;27.50;77.10
35746;DHT22;21870;42.812;74.628;2022-08-19T04:44:22;27.70;76.20
35746;DHT22;21870;42.812;74.628;2022-08-19T04:46:49;27.80;77.30
35746;DHT22;21870;42.812;74.628;2022-08-19T04:49:20;28.00;78.30
35746;DHT22;21870;42.812;74.628;2022-08-19T04:51:51;27.80;77.10
35746;DHT22;21870;42.812;74.628;2022-08-19T04:54:21;27.90;75.50
35746;DHT22;21870;42.812;74.628;2022-08-19T04:56:53;28.10;74.50
35746;DHT22;21870;42.812;74.628;2022-08-19T04:59:19;28.00;74.90
35746;DHT22;21870;42.812;74.628;2022-08-19T05:01:46;28.10;74.10
35746;DHT22;21870;42.812;74.628;2022-08-19T05:04:17;28.20;72.30
35746;DHT22;21870;42.812;74.628;2022-08-19T05:06:45;28.20;70.60
35746;DHT22;21870;42.812;74.628;2022-08-19T05:09:13;28.10;71.80
35746;DHT22;21870;42.812;74.628;2022-08-19T05:11:39;28.30;70.30
35746;DHT22;21870;42.812;74.628;2022-08-19T05:14:10;28.40;72.30
35746;DHT22;21870;42.812;74.628;2022-08-19T05:16:38;28.40;73.60
35746;DHT22;21870;42.812;74.628;2022-08-19T05:19:05;28.40;72.40
35746;DHT22;21870;42.812;74.628;2022-08-19T05:21:49;28.60;72.00
35746;DHT22;21870;42.812;74.628;2022-08-19T05:24:33;28.40;72.70
35746;DHT22;21870;42.812;74.628;2022-08-19T05:27:02;28.50;71.10
35746;DHT22;21870;42.812;74.628;2022-08-19T05:29:34;28.40;70.90
35746;DHT22;21870;42.812;74.628;2022-08-19T05:32:02;28.50;71.10
35746;DHT22;21870;42.812;74.628;2022-08-19T05:34:31;28.70;71.20
35746;DHT22;21870;42.812;74.628;2022-08-19T05:37:00;28.70;69.90
35746;DHT22;21870;42.812;74.628;2022-08-19T05:39:29;28.40;70.50
35746;DHT22;21870;42.812;74.628;2022-08-19T05:41:59;28.60;70.60
35746;DHT22;21870;42.812;74.628;2022-08-19T05:44:27;28.70;69.30
35746;DHT22;21870;42.812;74.628;2022-08-19T05:46:58;28.70;71.10
35746;DHT22;21870;42.812;74.628;2022-08-19T05:49:26;28.80;71.30
35746;DHT22;21870;42.812;74.628;2022-08-19T05:51:53;28.90;71.50
35746;DHT22;21870;42.812;74.628;2022-08-19T05:54:20;29.10;72.40
35746;DHT22;21870;42.812;74.628;2022-08-19T05:56:49;29.10;72.60
35746;DHT22;21870;42.812;74.628;2022-08-19T05:59:17;29.20;71.80
35746;DHT22;21870;42.812;74.628;2022-08-19T06:01:45;29.30;70.80
35746;DHT22;21870;42.812;74.628;2022-08-19T06:04:12;29.20;71.40
35746;DHT22;21870;42.812;74.628;2022-08-19T06:06:39;29.20;70.20
35746;DHT22;21870;42.812;74.628;2022-08-19T06:09:07;29.00;71.50
35746;DHT22;21870;42.812;74.628;2022-08-19T06:11:53;29.00;71.20
35746;DHT22;21870;42.812;74.628;2022-08-19T06:14:23;29.10;71.50
35746;DHT22;21870;42.812;74.628;2022-08-19T06:16:50;29.40;73.60
35746;DHT22;21870;42.812;74.628;2022-08-19T06:19:22;29.50;70.10
35746;DHT22;21870;42.812;74.628;2022-08-19T06:21:50;29.50;69.20
35746;DHT22;21870;42.812;74.628;2022-08-19T06:24:20;29.40;67.10
35746;DHT22;21870;42.812;74.628;2022-08-19T06:26:48;29.60;68.70
35746;DHT22;21870;42.812;74.628;2022-08-19T06:29:15;29.50;69.40
35746;DHT22;21870;42.812;74.628;2022-08-19T06:31:45;29.60;69.00
35746;DHT22;21870;42.812;74.628;2022-08-19T06:34:11;29.80;70.90
35746;DHT22;21870;42.812;74.628;2022-08-19T06:36:41;29.90;69.30
35746;DHT22;21870;42.812;74.628;2022-08-19T06:39:14;30.00;70.20
35746;DHT22;21870;42.812;74.628;2022-08-19T06:41:44;30.00;70.80
35746;DHT22;21870;42.812;74.628;2022-08-19T06:44:11;30.30;71.90
35746;DHT22;21870;42.812;74.628;2022-08-19T06:46:39;30.30;67.60
35746;DHT22;21870;42.812;74.628;2022-08-19T06:49:06;30.40;68.30
35746;DHT22;21870;42.812;74.628;2022-08-19T06:51:37;30.50;68.10
35746;DHT22;21870;42.812;74.628;2022-08-19T06:54:04;30.50;70.30
35746;DHT22;21870;42.812;74.628;2022-08-19T06:56:31;30.40;67.10
35746;DHT22;21870;42.812;74.628;2022-08-19T06:59:10;30.40;67.60
35746;DHT22;21870;42.812;74.628;2022-08-19T07:01:42;30.20;68.70
35746;DHT22;21870;42.812;74.628;2022-08-19T07:04:09;30.30;68.40
35746;DHT22;21870;42.812;74.628;2022-08-19T07:06:36;30.50;66.90
35746;DHT22;21870;42.812;74.628;2022-08-19T07:09:04;30.40;67.10
35746;DHT22;21870;42.812;74.628;2022-08-19T07:11:31;30.30;67.00
35746;DHT22;21870;42.812;74.628;2022-08-19T07:13:59;30.40;69.50
35746;DHT22;21870;42.812;74.628;2022-08-19T07:16:25;30.50;68.60
35746;DHT22;21870;42.812;74.628;2022-08-19T07:18:52;30.80;66.80
35746;DHT22;21870;42.812;74.628;2022-08-19T07:21:27;30.80;69.10
35746;DHT22;21870;42.812;74.628;2022-08-19T07:23:59;30.90;68.10
35746;DHT22;21870;42.812;74.628;2022-08-19T07:26:28;31.00;66.50
35746;DHT22;21870;42.812;74.628;2022-08-19T07:28:55;30.90;64.20
35746;DHT22;21870;42.812;74.628;2022-08-19T07:31:24;30.80;64.20
35746;DHT22;21870;42.812;74.628;2022-08-19T07:33:52;30.80;67.60
35746;DHT22;21870;42.812;74.628;2022-08-19T07:36:27;30.90;65.80
35746;DHT22;21870;42.812;74.628;2022-08-19T07:38:58;30.90;65.70
35746;DHT22;21870;42.812;74.628;2022-08-19T07:41:26;30.90;68.50
35746;DHT22;21870;42.812;74.628;2022-08-19T07:43:54;30.90;65.40
35746;DHT22;21870;42.812;74.628;2022-08-19T07:46:21;30.90;65.80
35746;DHT22;21870;42.812;74.628;2022-08-19T07:48:49;31.00;65.50
35746;DHT22;21870;42.812;74.628;2022-08-19T07:51:18;31.20;64.20
35746;DHT22;21870;42.812;74.628;2022-08-19T07:53:44;31.20;64.60
35746;DHT22;21870;42.812;74.628;2022-08-19T07:56:12;31.20;62.80
35746;DHT22;21870;42.812;74.628;2022-08-19T07:58:41;31.10;65.10
35746;DHT22;21870;42.812;74.628;2022-08-19T08:01:09;31.10;63.50
35746;DHT22;21870;42.812;74.628;2022-08-19T08:03:36;31.00;65.50
35746;DHT22;21870;42.812;74.628;2022-08-19T08:06:21;31.10;65.10
35746;DHT22;21870;42.812;74.628;2022-08-19T08:09:09;31.10;65.20
35746;DHT22;21870;42.812;74.628;2022-08-19T08:12:08;31.10;63.90
35746;DHT22;21870;42.812;74.628;2022-08-19T08:14:52;31.10;62.30
35746;DHT22;21870;42.812;74.628;2022-08-19T08:17:20;30.90;64.80
35746;DHT22;21870;42.812;74.628;2022-08-19T08:19:46;30.90;64.80
35746;DHT22;21870;42.812;74.628;2022-08-19T08:22:15;30.90;64.20
35746;DHT22;21870;42.812;74.628;2022-08-19T08:25:08;31.10;64.00
35746;DHT22;21870;42.812;74.628;2022-08-19T08:27:42;31.20;62.30
35746;DHT22;21870;42.812;74.628;2022-08-19T08:30:10;31.30;62.90
35746;DHT22;21870;42.812;74.628;2022-08-19T08:32:38;31.30;63.40
35746;DHT22;21870;42.812;74.628;2022-08-19T08:35:12;31.40;63.10
35746;DHT22;21870;42.812;74.628;2022-08-19T08:37:38;31.70;61.00
35746;DHT22;21870;42.812;74.628;2022-08-19T08:40:09;31.70;61.70
35746;DHT22;21870;42.812;74.628;2022-08-19T08:42:47;31.40;62.00
35746;DHT22;21870;42.812;74.628;2022-08-19T08:45:17;31.30;62.80
35746;DHT22;21870;42.812;74.628;2022-08-19T08:47:47;31.30;62.90
35746;DHT22;21870;42.812;74.628;2022-08-19T08:50:23;31.40;64.10
35746;DHT22;21870;42.812;74.628;2022-08-19T08:52:52;31.70;65.20
35746;DHT22;21870;42.812;74.628;2022-08-19T08:55:26;31.60;63.30
35746;DHT22;21870;42.812;74.628;2022-08-19T08:58:01;31.60;64.70
35746;DHT22;21870;42.812;74.628;2022-08-19T09:00:41;31.70;64.90
35746;DHT22;21870;42.812;74.628;2022-08-19T09:03:20;31.70;62.50
35746;DHT22;21870;42.812;74.628;2022-08-19T09:17:09;31.70;61.90
35746;DHT22;21870;42.812;74.628;2022-08-19T09:19:57;31.60;62.60
35746;DHT22;21870;42.812;74.628;2022-08-19T09:22:24;31.70;62.90
35746;DHT22;21870;42.812;74.628;2022-08-19T09:24:53;31.60;62.60
35746;DHT22;21870;42.812;74.628;2022-08-19T09:27:20;31.50;63.50
35746;DHT22;21870;42.812;74.628;2022-08-19T09:29:46;31.40;63.70
35746;DHT22;21870;42.812;74.628;2022-08-19T09:32:14;31.60;62.70
35746;DHT22;21870;42.812;74.628;2022-08-19T09:34:41;31.40;62.00
35746;DHT22;21870;42.812;74.628;2022-08-19T09:37:07;31.40;64.00
35746;DHT22;21870;42.812;74.628;2022-08-19T09:39:33;31.40;63.40
35746;DHT22;21870;42.812;74.628;2022-08-19T09:41:59;31.60;62.60
35746;DHT22;21870;42.812;74.628;2022-08-19T09:44:25;31.60;63.30
35746;DHT22;21870;42.812;74.628;2022-08-19T09:46:52;31.70;64.00
35746;DHT22;21870;42.812;74.628;2022-08-19T09:49:19;31.70;63.40
35746;DHT22;21870;42.812;74.628;2022-08-19T09:51:51;31.70;64.20
35746;DHT22;21870;42.812;74.628;2022-08-19T09:54:18;31.90;61.70
35746;DHT22;21870;42.812;74.628;2022-08-19T09:56:44;31.80;61.50
35746;DHT22;21870;42.812;74.628;2022-08-19T09:59:10;31.80;62.20
35746;DHT22;21870;42.812;74.628;2022-08-19T10:01:38;31.90;61.50
35746;DHT22;21870;42.812;74.628;2022-08-19T10:04:04;32.10;62.00
35746;DHT22;21870;42.812;74.628;2022-08-19T10:06:39;32.00;62.80
35746;DHT22;21870;42.812;74.628;2022-08-19T10:09:07;31.70;61.70
35746;DHT22;21870;42.812;74.628;2022-08-19T10:11:34;31.50;62.40
35746;DHT22;21870;42.812;74.628;2022-08-19T10:14:02;31.30;62.60
35746;DHT22;21870;42.812;74.628;2022-08-19T10:16:31;31.30;63.60
35746;DHT22;21870;42.812;74.628;2022-08-19T10:18:58;31.20;63.60
35746;DHT22;21870;42.812;74.628;2022-08-19T10:21:28;31.40;65.00
35746;DHT22;21870;42.812;74.628;2022-08-19T10:24:00;31.40;63.30
35746;DHT22;21870;42.812;74.628;2022-08-19T10:26:34;31.50;62.60
35746;DHT22;21870;42.812;74.628;2022-08-19T10:29:02;31.10;63.60
35746;DHT22;21870;42.812;74.628;2022-08-19T10:31:31;31.10;62.90
35746;DHT22;21870;42.812;74.628;2022-08-19T10:33:58;31.10;62.70
35746;DHT22;21870;42.812;74.628;2022-08-19T10:36:35;31.10;63.20
35746;DHT22;21870;42.812;74.628;2022-08-19T10:39:08;31.00;64.20
35746;DHT22;21870;42.812;74.628;2022-08-19T10:41:37;31.00;63.40
35746;DHT22;21870;42.812;74.628;2022-08-19T10:44:07;30.70;64.00
35746;DHT22;21870;42.812;74.628;2022-08-19T10:46:37;30.70;64.60
35746;DHT22;21870;42.812;74.628;2022-08-19T10:49:05;30.70;63.80
35746;DHT22;21870;42.812;74.628;2022-08-19T10:51:32;30.60;64.50
35746;DHT22;21870;42.812;74.628;2022-08-19T10:54:17;30.60;64.10
35746;DHT22;21870;42.812;74.628;2022-08-19T10:56:44;30.60;65.00
35746;DHT22;21870;42.812;74.628;2022-08-19T10:59:24;30.70;63.00
35746;DHT22;21870;42.812;74.628;2022-08-19T11:01:53;30.50;62.90
35746;DHT22;21870;42.812;74.628;2022-08-19T11:04:20;30.80;63.20
35746;DHT22;21870;42.812;74.628;2022-08-19T11:06:48;30.70;63.60
35746;DHT22;21870;42.812;74.628;2022-08-19T11:09:20;30.60;64.30
35746;DHT22;21870;42.812;74.628;2022-08-19T11:11:46;30.50;64.70
35746;DHT22;21870;42.812;74.628;2022-08-19T11:14:17;30.50;65.70
35746;DHT22;21870;42.812;74.628;2022-08-19T11:16:50;30.20;65.70
35746;DHT22;21870;42.812;74.628;2022-08-19T11:19:17;30.10;65.60
35746;DHT22;21870;42.812;74.628;2022-08-19T11:21:47;30.00;65.10
35746;DHT22;21870;42.812;74.628;2022-08-19T11:24:22;29.90;65.20
35746;DHT22;21870;42.812;74.628;2022-08-19T11:26:50;29.90;64.30
35746;DHT22;21870;42.812;74.628;2022-08-19T11:29:18;29.90;67.00
35746;DHT22;21870;42.812;74.628;2022-08-19T11:31:46;29.80;65.60
35746;DHT22;21870;42.812;74.628;2022-08-19T11:34:16;29.70;67.20
35746;DHT22;21870;42.812;74.628;2022-08-19T11:36:44;29.70;67.60
35746;DHT22;21870;42.812;74.628;2022-08-19T11:39:13;29.60;66.50
35746;DHT22;21870;42.812;74.628;2022-08-19T11:41:40;29.30;65.40
35746;DHT22;21870;42.812;74.628;2022-08-19T11:44:07;29.30;64.50
35746;DHT22;21870;42.812;74.628;2022-08-19T11:46:35;29.30;65.20
35746;DHT22;21870;42.812;74.628;2022-08-19T11:49:02;29.10;65.40
35746;DHT22;21870;42.812;74.628;2022-08-19T11:51:29;29.10;64.80
35746;DHT22;21870;42.812;74.628;2022-08-19T11:53:57;28.90;65.00
35746;DHT22;21870;42.812;74.628;2022-08-19T11:56:25;28.70;65.00
35746;DHT22;21870;42.812;74.628;2022-08-19T11:58:52;28.60;64.90
35746;DHT22;21870;42.812;74.628;2022-08-19T12:01:21;28.50;64.00
35746;DHT22;21870;42.812;74.628;2022-08-19T12:03:49;28.50;64.20
35746;DHT22;21870;42.812;74.628;2022-08-19T12:06:21;28.40;64.30
35746;DHT22;21870;42.812;74.628;2022-08-19T12:08:51;28.30;64.10
35746;DHT22;21870;42.812;74.628;2022-08-19T12:11:18;28.20;64.20
35746;DHT22;21870;42.812;74.628;2022-08-19T12:13:44;28.20;63.60
35746;DHT22;21870;42.812;74.628;2022-08-19T12:16:13;28.10;63.70
35746;DHT22;21870;42.812;74.628;2022-08-19T12:18:42;28.10;62.80
35746;DHT22;21870;42.812;74.628;2022-08-19T12:21:23;28.00;63.90
35746;DHT22;21870;42.812;74.628;2022-08-19T12:23:51;27.80;64.10
35746;DHT22;21870;42.812;74.628;2022-08-19T12:26:17;27.80;63.60
35746;DHT22;21870;42.812;74.628;2022-08-19T12:28:44;27.70;63.60
35746;DHT22;21870;42.812;74.628;2022-08-19T12:31:11;27.50;65.40
35746;DHT22;21870;42.812;74.628;2022-08-19T12:33:38;27.60;66.10
35746;DHT22;21870;42.812;74.628;2022-08-19T12:36:07;27.50;66.70
35746;DHT22;21870;42.812;74.628;2022-08-19T12:38:34;27.50;66.30
35746;DHT22;21870;42.812;74.628;2022-08-19T12:41:00;27.40;66.90
35746;DHT22;21870;42.812;74.628;2022-08-19T12:43:28;27.40;67.20
35746;DHT22;21870;42.812;74.628;2022-08-19T12:45:55;27.30;66.80
35746;DHT22;21870;42.812;74.628;2022-08-19T12:48:21;27.30;67.00
35746;DHT22;21870;42.812;74.628;2022-08-19T12:50:47;27.30;66.90
35746;DHT22;21870;42.812;74.628;2022-08-19T12:53:14;27.20;67.80
35746;DHT22;21870;42.812;74.628;2022-08-19T12:55:41;27.20;67.30
35746;DHT22;21870;42.812;74.628;2022-08-19T12:58:10;27.20;66.90
35746;DHT22;21870;42.812;74.628;2022-08-19T13:00:39;27.10;67.30
35746;DHT22;21870;42.812;74.628;2022-08-19T13:03:05;27.00;67.30
35746;DHT22;21870;42.812;74.628;2022-08-19T13:05:32;27.00;67.30
35746;DHT22;21870;42.812;74.628;2022-08-19T13:08:00;27.00;67.50
35746;DHT22;21870;42.812;74.628;2022-08-19T13:10:31;26.80;67.90
35746;DHT22;21870;42.812;74.628;2022-08-19T13:13:03;26.80;69.00
35746;DHT22;21870;42.812;74.628;2022-08-19T13:15:33;26.80;68.70
35746;DHT22;21870;42.812;74.628;2022-08-19T13:18:00;26.70;69.00
35746;DHT22;21870;42.812;74.628;2022-08-19T13:20:26;26.60;68.40
35746;DHT22;21870;42.812;74.628;2022-08-19T13:22:53;26.50;68.50
35746;DHT22;21870;42.812;74.628;2022-08-19T13:25:23;26.40;68.70
35746;DHT22;21870;42.812;74.628;2022-08-19T13:27:50;26.30;68.50
35746;DHT22;21870;42.812;74.628;2022-08-19T13:30:18;26.20;68.70
35746;DHT22;21870;42.812;74.628;2022-08-19T13:33:03;26.20;69.10
35746;DHT22;21870;42.812;74.628;2022-08-19T13:35:57;26.20;69.40
35746;DHT22;21870;42.812;74.628;2022-08-19T13:38:24;26.20;69.60
35746;DHT22;21870;42.812;74.628;2022-08-19T13:40:52;26.10;69.60
35746;DHT22;21870;42.812;74.628;2022-08-19T13:43:20;26.10;70.10
35746;DHT22;21870;42.812;74.628;2022-08-19T13:45:51;26.00;70.40
35746;DHT22;21870;42.812;74.628;2022-08-19T13:48:22;25.90;71.30
35746;DHT22;21870;42.812;74.628;2022-08-19T13:50:49;25.90;70.00
35746;DHT22;21870;42.812;74.628;2022-08-19T13:53:16;25.80;70.90
35746;DHT22;21870;42.812;74.628;2022-08-19T13:55:43;25.70;70.80
35746;DHT22;21870;42.812;74.628;2022-08-19T13:58:10;25.60;72.10
35746;DHT22;21870;42.812;74.628;2022-08-19T14:00:40;25.50;71.10
35746;DHT22;21870;42.812;74.628;2022-08-19T14:03:07;25.50;71.20
35746;DHT22;21870;42.812;74.628;2022-08-19T14:05:34;25.50;71.40
35746;DHT22;21870;42.812;74.628;2022-08-19T14:08:00;25.50;72.00
35746;DHT22;21870;42.812;74.628;2022-08-19T14:10:27;25.40;71.70
35746;DHT22;21870;42.812;74.628;2022-08-19T14:12:58;25.40;71.90
35746;DHT22;21870;42.812;74.628;2022-08-19T14:15:26;25.30;72.00
35746;DHT22;21870;42.812;74.628;2022-08-19T14:17:52;25.30;72.40
35746;DHT22;21870;42.812;74.628;2022-08-19T14:20:19;25.30;72.50
35746;DHT22;21870;42.812;74.628;2022-08-19T14:22:47;25.30;72.30
35746;DHT22;21870;42.812;74.628;2022-08-19T14:25:20;25.20;72.60
35746;DHT22;21870;42.812;74.628;2022-08-19T14:27:48;25.10;74.40
35746;DHT22;21870;42.812;74.628;2022-08-19T14:30:17;25.00;73.90
35746;DHT22;21870;42.812;74.628;2022-08-19T14:32:45;24.80;74.20
35746;DHT22;21870;42.812;74.628;2022-08-19T14:35:13;24.80;73.40
35746;DHT22;21870;42.812;74.628;2022-08-19T14:37:41;24.70;73.50
35746;DHT22;21870;42.812;74.628;2022-08-19T14:40:08;24.60;73.80
35746;DHT22;21870;42.812;74.628;2022-08-19T14:42:34;24.60;74.10
35746;DHT22;21870;42.812;74.628;2022-08-19T14:45:01;24.60;74.30
35746;DHT22;21870;42.812;74.628;2022-08-19T14:47:27;24.50;74.40
35746;DHT22;21870;42.812;74.628;2022-08-19T14:49:53;24.50;74.60
35746;DHT22;21870;42.812;74.628;2022-08-19T14:52:20;24.40;76.10
35746;DHT22;21870;42.812;74.628;2022-08-19T14:54:46;24.40;75.40
35746;DHT22;21870;42.812;74.628;2022-08-19T14:57:13;24.40;75.10
35746;DHT22;21870;42.812;74.628;2022-08-19T14:59:42;24.40;75.60
35746;DHT22;21870;42.812;74.628;2022-08-19T15:02:08;24.30;75.50
35746;DHT22;21870;42.812;74.628;2022-08-19T15:04:34;24.20;75.60
35746;DHT22;21870;42.812;74.628;2022-08-19T15:07:00;24.10;75.80
35746;DHT22;21870;42.812;74.628;2022-08-19T15:09:30;24.00;75.80
35746;DHT22;21870;42.812;74.628;2022-08-19T15:11:57;23.80;76.30
35746;DHT22;21870;42.812;74.628;2022-08-19T15:14:25;23.70;76.80
35746;DHT22;21870;42.812;74.628;2022-08-19T15:16:52;23.60;77.00
35746;DHT22;21870;42.812;74.628;2022-08-19T15:19:18;23.40;77.30
35746;DHT22;21870;42.812;74.628;2022-08-19T15:21:44;23.20;77.20
35746;DHT22;21870;42.812;74.628;2022-08-19T15:24:10;23.10;77.50
35746;DHT22;21870;42.812;74.628;2022-08-19T15:26:36;23.10;77.90
35746;DHT22;21870;42.812;74.628;2022-08-19T15:29:03;22.90;78.00
35746;DHT22;21870;42.812;74.628;2022-08-19T15:31:30;22.80;78.50
35746;DHT22;21870;42.812;74.628;2022-08-19T15:34:02;22.70;78.30
35746;DHT22;21870;42.812;74.628;2022-08-19T15:36:28;22.70;78.40
35746;DHT22;21870;42.812;74.628;2022-08-19T15:38:55;22.60;78.30